Terminal Aerodrome Forecast
Issued by NWS

Home | Current Version | Previous Version | Graphics & Text | Print | Product List | Glossary Off
Versions: 1 2 3 4 5 6 7 8 9 10 11 12 13 14 15 16 17 18 19 20 21 22 23 24 25 26 27 28 29 30 31 32 33 34 35 36

342
FTUS43 KDDC 130537
TAFGCK
TAF
KGCK 130537Z 1306/1406 27011KT P6SM SKC
     FM131100 32013G26KT P6SM FEW250
     FM131600 35022G32KT P6SM FEW250
     FM140000 35009KT P6SM SCT250=

USA.gov is the U.S. government's official web portal to all federal, state and local government web resources and services.